Time;durP1;ratioP1;P1;durP2;ratioP2;P2;SDS_P1;SDS_P2;PMS_P1;PMS_P2;Temp;Humidity;BMP_temperature;BMP_pressure;BME280_temperature;BME280_humidity;BME280_pressure;Samples;Min_cycle;Max_cycle;Signal;HPM_P1;HPM_P2
2022/03/24 00:00:54;;;;;;;135.30;126.77;;;2.80;98.20;;;;;;5034701;28;20463;-83
2022/03/24 00:03:22;;;;;;;113.73;104.83;;;2.90;98.20;;;;;;5034680;28;20524;-82
2022/03/24 00:05:49;;;;;;;93.00;85.50;;;2.80;97.40;;;;;;5034582;28;20447;-82
2022/03/24 00:08:16;;;;;;;85.90;77.90;;;2.80;97.50;;;;;;5034529;28;20484;-81
2022/03/24 00:10:42;;;;;;;75.10;67.00;;;2.80;97.40;;;;;;5034414;28;20463;-82
2022/03/24 00:13:10;;;;;;;65.30;56.30;;;2.90;97.10;;;;;;5034693;28;20979;-82
2022/03/24 00:15:37;;;;;;;66.97;56.63;;;2.90;96.30;;;;;;5034374;28;20483;-82
2022/03/24 00:18:04;;;;;;;66.83;55.33;;;3.00;95.90;;;;;;5034918;28;20472;-82
2022/03/24 00:20:33;;;;;;;67.30;55.43;;;3.10;95.40;;;;;;5034118;28;20991;-82
2022/03/24 00:23:00;;;;;;;61.33;48.77;;;3.30;94.50;;;;;;5034695;28;20460;-80
2022/03/24 00:25:26;;;;;;;63.37;52.90;;;3.20;94.60;;;;;;5034225;28;20463;-82
2022/03/24 00:27:53;;;;;;;58.37;46.63;;;3.20;94.60;;;;;;5034334;28;20478;-82
2022/03/24 00:30:20;;;;;;;60.60;46.10;;;3.50;93.50;;;;;;5034423;28;20448;-82
2022/03/24 00:32:47;;;;;;;58.37;47.33;;;3.40;93.00;;;;;;5034396;28;20456;-82
2022/03/24 00:35:14;;;;;;;52.07;40.60;;;3.30;93.50;;;;;;5034003;28;20475;-82
2022/03/24 00:37:42;;;;;;;61.30;46.27;;;3.30;93.20;;;;;;5034430;28;20472;-82
2022/03/24 00:40:10;;;;;;;74.83;50.97;;;3.10;92.90;;;;;;5034297;28;20452;-82
2022/03/24 00:42:37;;;;;;;62.40;55.73;;;3.00;93.90;;;;;;5034325;28;20542;-82
2022/03/24 00:45:07;;;;;;;63.40;56.53;;;3.10;94.70;;;;;;5036423;28;20450;-81
2022/03/24 00:47:35;;;;;;;59.37;53.90;;;2.90;95.00;;;;;;5037287;28;20479;-82
2022/03/24 00:50:01;;;;;;;67.00;58.70;;;2.90;95.20;;;;;;5037348;28;20456;-82
2022/03/24 00:52:28;;;;;;;82.00;75.10;;;2.80;95.20;;;;;;5037603;28;20456;-82
2022/03/24 00:54:56;;;;;;;91.47;83.53;;;2.80;95.30;;;;;;5037462;28;20464;-82
2022/03/24 00:57:23;;;;;;;113.60;105.60;;;2.70;96.00;;;;;;5037660;28;20795;-82
2022/03/24 00:59:50;;;;;;;110.77;102.90;;;2.70;96.70;;;;;;5037798;28;20456;-82
2022/03/24 01:02:17;;;;;;;142.27;133.50;;;2.50;96.90;;;;;;5037469;28;20456;-82
2022/03/24 01:04:44;;;;;;;140.77;132.37;;;2.50;97.30;;;;;;5037850;28;20502;-82
2022/03/24 01:07:10;;;;;;;141.33;132.43;;;2.40;97.50;;;;;;5037156;28;20459;-81
2022/03/24 01:09:37;;;;;;;150.37;141.47;;;2.40;97.90;;;;;;5037888;28;20872;-83
2022/03/24 01:12:06;;;;;;;231.13;217.43;;;2.40;98.30;;;;;;5037302;28;20452;-82
2022/03/24 01:14:35;;;;;;;236.63;223.20;;;2.20;99.60;;;;;;5037024;28;20472;-82
2022/03/24 01:17:04;;;;;;;215.00;202.57;;;2.20;99.90;;;;;;5037247;28;20463;-82
2022/03/24 01:19:32;;;;;;;199.73;188.37;;;2.10;99.90;;;;;;5036775;28;20452;-82
2022/03/24 01:21:59;;;;;;;189.30;177.77;;;2.20;99.90;;;;;;5037324;28;20794;-82
2022/03/24 01:24:26;;;;;;;189.27;177.87;;;2.30;99.90;;;;;;5037397;28;20968;-82
2022/03/24 01:26:53;;;;;;;177.87;166.33;;;2.10;99.90;;;;;;5040504;28;20449;-82
2022/03/24 01:29:21;;;;;;;175.17;163.90;;;2.00;99.90;;;;;;5036348;28;20833;-82
2022/03/24 01:31:48;;;;;;;163.57;153.67;;;2.10;99.90;;;;;;5037672;28;20452;-81
2022/03/24 01:34:16;;;;;;;157.83;148.20;;;2.00;99.90;;;;;;5037145;28;20460;-83
2022/03/24 01:36:43;;;;;;;163.97;152.73;;;2.10;99.90;;;;;;5037109;28;20794;-82
2022/03/24 01:39:10;;;;;;;185.77;175.20;;;1.90;99.90;;;;;;5036706;28;20472;-82
2022/03/24 01:41:38;;;;;;;221.70;208.63;;;1.90;99.90;;;;;;5017279;28;20464;-82
2022/03/24 01:44:12;;;;;;;223.77;211.77;;;1.90;99.90;;;;;;5017238;28;20469;-82
2022/03/24 01:46:54;;;;;;;202.30;191.80;;;1.90;99.90;;;;;;5036491;28;20537;-82
2022/03/24 01:49:21;;;;;;;178.83;168.97;;;1.80;99.90;;;;;;5036554;28;20483;-82
2022/03/24 01:51:48;;;;;;;199.30;188.67;;;1.80;99.90;;;;;;5017072;28;20449;-82
2022/03/24 01:54:15;;;;;;;231.83;219.37;;;1.90;99.90;;;;;;5016662;28;20461;-82
2022/03/24 01:56:41;;;;;;;269.27;256.00;;;1.80;99.90;;;;;;5034596;28;20455;-82
2022/03/24 01:59:08;;;;;;;247.80;234.33;;;1.90;99.90;;;;;;5036901;28;21018;-82
2022/03/24 02:01:36;;;;;;;268.13;254.33;;;1.80;99.90;;;;;;5036943;28;20452;-82
2022/03/24 02:04:05;;;;;;;263.07;249.23;;;1.70;99.90;;;;;;5036889;28;20455;-82
2022/03/24 02:06:32;;;;;;;283.67;268.67;;;1.70;99.90;;;;;;5036345;28;20456;-82
2022/03/24 02:08:59;;;;;;;288.97;273.37;;;1.80;99.90;;;;;;5035772;28;20487;-82
2022/03/24 02:11:26;;;;;;;242.97;230.37;;;1.70;99.90;;;;;;5036747;28;20468;-82
2022/03/24 02:13:54;;;;;;;232.27;219.73;;;1.70;99.90;;;;;;5036035;28;20463;-82
2022/03/24 02:16:21;;;;;;;253.27;239.70;;;1.60;99.90;;;;;;5036463;28;20476;-81
2022/03/24 02:18:48;;;;;;;325.97;308.67;;;1.70;99.90;;;;;;5036008;28;20472;-82
2022/03/24 02:21:16;;;;;;;323.77;307.33;;;1.70;99.90;;;;;;5036050;28;20453;-82
2022/03/24 02:23:45;;;;;;;333.70;316.33;;;1.60;99.90;;;;;;5037057;28;20463;-83
2022/03/24 02:26:12;;;;;;;279.93;264.83;;;1.60;99.90;;;;;;5036360;28;20445;-82
2022/03/24 02:28:40;;;;;;;392.77;372.30;;;1.50;99.90;;;;;;5036309;28;20468;-82
2022/03/24 02:31:09;;;;;;;419.20;396.50;;;1.50;99.90;;;;;;5035832;28;20463;-82
2022/03/24 02:33:36;;;;;;;421.70;398.60;;;1.50;99.90;;;;;;5036835;28;20511;-82
2022/03/24 02:36:03;;;;;;;440.53;416.17;;;1.50;99.90;;;;;;5036249;28;20468;-82
2022/03/24 02:38:31;;;;;;;418.70;394.90;;;1.50;99.90;;;;;;5036459;28;20484;-81
2022/03/24 02:40:59;;;;;;;425.90;401.20;;;1.50;99.90;;;;;;5036757;28;20452;-82
2022/03/24 02:43:26;;;;;;;363.70;343.87;;;1.50;99.90;;;;;;5041077;28;20452;-82
2022/03/24 02:45:54;;;;;;;362.30;342.40;;;1.60;99.90;;;;;;5051743;28;20942;-82
2022/03/24 02:48:20;;;;;;;347.47;328.93;;;1.60;99.90;;;;;;5044518;28;20468;-82
2022/03/24 02:50:47;;;;;;;344.90;326.03;;;1.40;99.90;;;;;;5036544;28;20463;-81
2022/03/24 02:53:14;;;;;;;354.57;335.13;;;1.30;99.90;;;;;;5036933;28;20452;-81
2022/03/24 02:55:41;;;;;;;371.90;352.80;;;1.30;99.90;;;;;;5037126;28;20569;-81
2022/03/24 02:58:09;;;;;;;302.50;285.83;;;1.20;99.90;;;;;;5036422;28;20483;-82
2022/03/24 03:00:37;;;;;;;363.27;344.23;;;1.10;99.90;;;;;;5037491;28;20456;-82
2022/03/24 03:03:04;;;;;;;391.70;371.80;;;1.20;99.90;;;;;;5051322;28;20456;-82
2022/03/24 03:05:31;;;;;;;392.00;372.27;;;1.20;99.90;;;;;;5045949;28;20690;-81
2022/03/24 03:07:58;;;;;;;408.63;386.93;;;1.30;99.90;;;;;;5036508;28;20480;-82
2022/03/24 03:10:24;;;;;;;389.17;369.90;;;1.30;99.90;;;;;;5036401;28;20457;-82
2022/03/24 03:12:51;;;;;;;404.07;382.37;;;1.40;99.90;;;;;;5035407;28;20952;-82
2022/03/24 03:15:19;;;;;;;380.43;361.23;;;1.30;99.90;;;;;;5035618;28;20476;-82
2022/03/24 03:17:46;;;;;;;399.60;378.33;;;1.30;99.90;;;;;;5035576;28;20472;-82
2022/03/24 03:20:13;;;;;;;450.93;427.07;;;1.40;99.90;;;;;;5035356;28;20459;-81
2022/03/24 03:22:40;;;;;;;432.30;408.60;;;1.30;99.90;;;;;;5036030;28;20460;-82
2022/03/24 03:25:08;;;;;;;414.40;392.03;;;1.30;99.90;;;;;;5035232;28;20448;-82
2022/03/24 03:27:35;;;;;;;427.17;403.37;;;1.50;99.90;;;;;;5035290;28;20851;-82
2022/03/24 03:30:01;;;;;;;422.30;399.87;;;1.60;99.90;;;;;;5034542;28;20448;-81
2022/03/24 03:32:29;;;;;;;443.70;417.80;;;1.40;99.90;;;;;;5035089;28;20879;-81
2022/03/24 03:34:56;;;;;;;440.80;416.17;;;1.50;99.90;;;;;;5034413;28;20452;-81
2022/03/24 03:37:23;;;;;;;394.37;372.87;;;1.50;99.90;;;;;;5034834;28;20855;-82
2022/03/24 03:39:51;;;;;;;406.00;385.07;;;1.70;99.90;;;;;;5034317;28;20453;-81
2022/03/24 03:42:19;;;;;;;415.27;392.53;;;1.60;99.90;;;;;;5035632;28;20454;-81
2022/03/24 03:44:46;;;;;;;452.17;427.13;;;1.60;99.90;;;;;;5035095;28;20889;-82
2022/03/24 03:47:13;;;;;;;515.00;485.67;;;1.50;99.90;;;;;;5035131;28;20456;-82
2022/03/24 03:49:41;;;;;;;540.53;510.13;;;1.50;99.90;;;;;;5034576;28;20536;-82
2022/03/24 03:52:08;;;;;;;563.70;532.33;;;1.50;99.90;;;;;;5034856;28;20452;-82
2022/03/24 03:54:35;;;;;;;573.70;541.33;;;1.50;99.90;;;;;;5035004;28;20456;-82
2022/03/24 03:57:03;;;;;;;585.77;551.63;;;1.60;99.90;;;;;;5034613;28;20479;-82
2022/03/24 03:59:30;;;;;;;581.57;548.90;;;1.60;99.90;;;;;;5034858;28;20591;-82
2022/03/24 04:01:58;;;;;;;506.57;477.73;;;1.50;99.90;;;;;;5034473;28;20463;-82
2022/03/24 04:04:24;;;;;;;468.33;442.07;;;1.50;99.90;;;;;;5034734;28;20460;-83
2022/03/24 04:06:53;;;;;;;497.43;470.67;;;1.40;99.90;;;;;;5034462;28;20444;-82
2022/03/24 04:09:31;;;;;;;504.97;478.17;;;1.40;99.90;;;;;;5059281;23;20511;-84
2022/03/24 04:12:09;;;;;;;498.73;471.43;;;1.40;99.90;;;;;;5033405;28;20946;-85
2022/03/24 04:14:41;;;;;;;539.50;510.40;;;1.30;99.90;;;;;;5019566;28;20954;-84
2022/03/24 04:17:12;;;;;;;550.10;520.07;;;1.40;99.90;;;;;;5036866;28;20538;-84
2022/03/24 04:19:38;;;;;;;584.30;551.03;;;1.40;99.90;;;;;;5034872;28;20472;-83
2022/03/24 04:22:13;;;;;;;538.87;508.23;;;1.50;99.90;;;;;;5020222;28;20449;-83
2022/03/24 04:24:40;;;;;;;551.60;521.53;;;1.50;99.90;;;;;;5022272;28;20459;-83
2022/03/24 04:27:07;;;;;;;592.33;560.17;;;1.50;99.90;;;;;;5026717;28;20457;-83
2022/03/24 04:29:33;;;;;;;547.07;517.37;;;1.40;99.90;;;;;;5031901;28;20498;-83
2022/03/24 04:32:00;;;;;;;581.03;549.27;;;1.40;99.90;;;;;;5027715;28;20457;-84
2022/03/24 04:34:27;;;;;;;586.33;553.73;;;1.40;99.90;;;;;;5028109;28;20459;-84
2022/03/24 04:36:54;;;;;;;593.90;560.70;;;1.30;99.90;;;;;;5020088;28;20484;-84
2022/03/24 04:39:22;;;;;;;571.17;539.47;;;1.20;99.90;;;;;;5019015;28;20476;-84
2022/03/24 04:41:48;;;;;;;556.90;525.63;;;1.20;99.90;;;;;;5020440;28;20457;-84
2022/03/24 04:44:15;;;;;;;547.30;517.40;;;1.20;99.90;;;;;;5020381;28;20452;-86
2022/03/24 04:46:43;;;;;;;628.37;593.13;;;1.10;99.90;;;;;;5021223;28;20488;-83
2022/03/24 04:49:10;;;;;;;564.97;533.77;;;1.10;99.90;;;;;;5020168;28;21015;-83
2022/03/24 04:51:36;;;;;;;526.83;498.33;;;1.10;99.90;;;;;;5032902;28;20457;-83
2022/03/24 04:54:03;;;;;;;651.53;614.63;;;1.00;99.90;;;;;;5027526;28;20460;-84
2022/03/24 04:56:31;;;;;;;731.53;689.23;;;0.80;99.90;;;;;;5039729;28;20487;-83
2022/03/24 04:58:58;;;;;;;679.97;642.27;;;0.90;99.90;;;;;;5026393;28;20479;-84
2022/03/24 05:01:25;;;;;;;708.97;669.40;;;0.80;99.90;;;;;;5038393;28;20456;-83
2022/03/24 05:03:52;;;;;;;679.73;641.73;;;0.90;99.90;;;;;;5024160;28;20475;-84
2022/03/24 05:06:18;;;;;;;718.00;675.90;;;0.80;99.90;;;;;;5020879;28;20826;-83
2022/03/24 05:08:45;;;;;;;802.93;755.03;;;0.70;99.90;;;;;;5021343;28;20477;-83
2022/03/24 05:11:12;;;;;;;786.40;739.67;;;0.80;99.90;;;;;;5022179;28;20464;-84
2022/03/24 05:13:40;;;;;;;730.23;687.43;;;0.70;99.90;;;;;;5036949;28;20452;-85
2022/03/24 05:16:07;;;;;;;823.00;773.90;;;0.70;99.90;;;;;;5037240;28;20468;-83
2022/03/24 05:18:40;;;;;;;718.93;677.33;;;0.80;99.90;;;;;;5038349;28;20479;-84
2022/03/24 05:24:03;;;;;;;787.97;740.83;;;0.60;99.90;;;;;;5017827;28;21039;-83
2022/03/24 05:26:32;;;;;;;767.38;721.25;;;0.70;99.90;;;;;;5018782;28;20476;-83
2022/03/24 05:29:00;;;;;;;814.43;765.20;;;0.60;99.90;;;;;;5018240;28;20253;-83
2022/03/24 05:31:26;;;;;;;778.37;731.27;;;0.60;99.90;;;;;;5023947;28;20452;-84
2022/03/24 05:33:53;;;;;;;763.33;718.13;;;0.70;99.90;;;;;;5021813;28;20445;-83
2022/03/24 05:36:20;;;;;;;783.80;735.80;;;0.60;99.90;;;;;;5026243;28;20473;-86
2022/03/24 05:38:47;;;;;;;776.00;728.60;;;0.70;99.90;;;;;;5020394;28;20480;-84
2022/03/24 05:41:13;;;;;;;755.20;709.17;;;0.60;99.90;;;;;;5010268;28;20456;-83
2022/03/24 05:44:02;;;;;;;788.43;739.50;;;0.70;99.90;;;;;;5019276;28;20449;-83
2022/03/24 05:46:28;;;;;;;778.23;730.37;;;0.70;99.90;;;;;;5008449;28;20448;-83
2022/03/24 05:48:55;;;;;;;780.10;732.00;;;0.80;99.90;;;;;;5018296;28;20469;-83
2022/03/24 05:51:22;;;;;;;794.17;744.47;;;0.90;99.90;;;;;;5018064;28;20457;-82
2022/03/24 05:53:49;;;;;;;762.03;714.83;;;1.00;99.90;;;;;;5017620;28;20460;-83
2022/03/24 05:56:16;;;;;;;757.93;711.33;;;1.10;99.90;;;;;;5017448;28;20477;-83
2022/03/24 05:58:43;;;;;;;729.13;685.13;;;1.20;99.90;;;;;;5017999;28;20477;-83
2022/03/24 06:01:10;;;;;;;740.00;695.50;;;1.30;99.90;;;;;;5018734;28;20456;-84
2022/03/24 06:03:38;;;;;;;635.20;598.33;;;1.30;99.90;;;;;;5018721;28;20445;-84
2022/03/24 06:06:06;;;;;;;641.03;603.70;;;1.20;99.90;;;;;;5018355;28;20450;-83
2022/03/24 06:08:33;;;;;;;649.27;611.13;;;1.30;99.90;;;;;;5017702;28;20806;-83
2022/03/24 06:11:00;;;;;;;665.03;624.37;;;1.40;99.90;;;;;;5018385;28;20488;-84
2022/03/24 06:13:27;;;;;;;618.90;582.63;;;1.60;99.90;;;;;;5018118;28;20572;-83
2022/03/24 06:15:55;;;;;;;566.83;536.60;;;1.50;99.90;;;;;;5018574;28;20465;-83
2022/03/24 06:18:22;;;;;;;517.20;489.77;;;1.70;99.90;;;;;;5017756;28;20469;-81
2022/03/24 06:20:50;;;;;;;569.77;538.87;;;1.60;99.90;;;;;;5018424;28;20950;-83
2022/03/24 06:23:17;;;;;;;562.93;532.33;;;1.60;99.90;;;;;;5018545;28;20456;-83
2022/03/24 06:25:44;;;;;;;505.60;479.73;;;1.90;99.90;;;;;;5018612;28;20449;-81
2022/03/24 06:28:11;;;;;;;485.83;459.73;;;1.60;99.90;;;;;;5019156;28;20481;-83
2022/03/24 06:30:38;;;;;;;525.67;497.73;;;1.80;99.90;;;;;;5019394;28;20521;-85
2022/03/24 06:33:05;;;;;;;633.53;597.33;;;1.90;99.90;;;;;;5030461;28;20514;-86
2022/03/24 06:35:31;;;;;;;615.97;581.40;;;2.10;99.90;;;;;;5027078;28;20445;-85
2022/03/24 06:38:00;;;;;;;559.00;527.93;;;2.20;99.90;;;;;;5028454;28;20490;-86
2022/03/24 06:40:26;;;;;;;585.57;553.10;;;2.30;99.90;;;;;;5038152;28;20459;-83
2022/03/24 06:42:54;;;;;;;569.30;538.63;;;2.40;99.90;;;;;;5027441;28;20973;-83
2022/03/24 06:45:21;;;;;;;509.87;483.27;;;2.50;99.90;;;;;;5022973;28;20938;-83
2022/03/24 06:47:49;;;;;;;469.73;446.60;;;2.50;99.90;;;;;;5004519;28;20480;-84
2022/03/24 06:50:16;;;;;;;526.13;496.17;;;2.50;99.90;;;;;;5017870;28;20458;-84
2022/03/24 06:52:44;;;;;;;530.87;501.87;;;2.70;99.90;;;;;;5024439;28;20458;-84
2022/03/24 06:55:13;;;;;;;544.87;514.60;;;2.80;99.90;;;;;;5020427;28;20523;-84
2022/03/24 06:57:44;;;;;;;533.73;504.53;;;2.90;99.90;;;;;;5017760;28;20527;-84
2022/03/24 07:00:13;;;;;;;573.47;541.27;;;3.00;99.90;;;;;;5017736;28;20544;-84
2022/03/24 07:02:40;;;;;;;556.23;523.93;;;3.10;99.90;;;;;;5016982;28;20457;-83
2022/03/24 07:05:08;;;;;;;555.90;524.60;;;3.30;99.90;;;;;;5014483;28;20950;-83
2022/03/24 07:07:35;;;;;;;530.43;500.77;;;3.60;99.90;;;;;;5015707;28;20449;-82
2022/03/24 07:10:02;;;;;;;481.13;453.43;;;3.70;99.90;;;;;;5024578;28;20456;-84
2022/03/24 07:12:30;;;;;;;488.87;459.97;;;3.90;99.90;;;;;;5032533;28;20453;-83
2022/03/24 07:14:57;;;;;;;547.63;516.60;;;4.10;99.90;;;;;;5030166;28;20453;-83
2022/03/24 07:17:24;;;;;;;567.50;534.93;;;4.30;99.90;;;;;;5012584;28;20500;-83
2022/03/24 07:19:50;;;;;;;452.83;426.67;;;4.60;99.90;;;;;;5016714;28;20480;-83
2022/03/24 07:22:18;;;;;;;477.87;450.53;;;4.80;99.90;;;;;;5034801;28;20452;-83
2022/03/24 07:24:45;;;;;;;482.73;451.43;;;5.00;99.90;;;;;;5032746;28;20490;-84
2022/03/24 07:27:14;;;;;;;539.00;507.33;;;5.10;99.90;;;;;;5025267;28;20444;-84
2022/03/24 07:29:42;;;;;;;481.43;453.07;;;5.20;99.90;;;;;;5017583;28;20485;-85
2022/03/24 07:32:10;;;;;;;405.40;382.63;;;5.50;99.90;;;;;;5020332;28;20464;-84
2022/03/24 07:34:37;;;;;;;273.50;258.83;;;5.70;99.90;;;;;;5027028;28;20452;-83
2022/03/24 07:37:05;;;;;;;157.60;146.47;;;5.80;99.90;;;;;;5036329;28;20831;-84
2022/03/24 07:39:32;;;;;;;187.43;174.27;;;5.90;99.90;;;;;;5022475;28;20477;-84
2022/03/24 07:41:59;;;;;;;150.10;138.53;;;6.10;99.90;;;;;;5017209;28;20457;-83
2022/03/24 07:44:26;;;;;;;112.00;102.27;;;6.20;99.90;;;;;;5019135;28;20824;-83
2022/03/24 07:46:54;;;;;;;117.40;107.93;;;6.20;99.90;;;;;;5032422;28;20996;-84
2022/03/24 07:49:20;;;;;;;87.00;77.73;;;6.40;99.90;;;;;;5034097;28;20479;-81
2022/03/24 07:51:47;;;;;;;79.90;62.63;;;6.50;99.90;;;;;;5030905;28;22158;-83
2022/03/24 07:54:14;;;;;;;74.37;53.33;;;6.80;98.50;;;;;;5035641;28;20542;-80
2022/03/24 07:56:43;;;;;;;67.10;45.47;;;6.90;96.70;;;;;;5028421;28;20469;-84
2022/03/24 07:59:09;;;;;;;67.20;45.53;;;7.10;95.40;;;;;;5021343;28;20929;-84
2022/03/24 08:01:37;;;;;;;71.30;43.40;;;7.30;93.50;;;;;;5031666;28;20448;-85
2022/03/24 08:04:07;;;;;;;66.20;42.90;;;7.40;91.70;;;;;;5042033;28;20456;-84
2022/03/24 08:06:35;;;;;;;72.10;43.30;;;7.50;90.10;;;;;;5032322;28;20499;-83
2022/03/24 08:09:03;;;;;;;78.40;44.17;;;7.60;88.90;;;;;;5020979;28;20526;-85
2022/03/24 08:11:30;;;;;;;62.27;43.53;;;7.90;86.80;;;;;;5025941;28;20452;-84
2022/03/24 08:13:57;;;;;;;66.50;42.70;;;7.90;86.60;;;;;;5035577;28;20463;-84
2022/03/24 08:16:25;;;;;;;72.00;44.50;;;8.10;86.50;;;;;;5034564;28;20961;-84
2022/03/24 08:18:53;;;;;;;68.23;44.43;;;8.60;84.90;;;;;;5027069;28;21024;-84
2022/03/24 08:21:22;;;;;;;69.10;42.60;;;8.50;82.10;;;;;;5021436;28;20448;-85
2022/03/24 08:23:49;;;;;;;64.43;44.10;;;8.80;79.50;;;;;;5022777;28;21124;-85
2022/03/24 08:26:16;;;;;;;64.00;42.23;;;9.10;74.70;;;;;;5040287;28;20456;-85
2022/03/24 08:28:42;;;;;;;78.20;41.87;;;9.60;70.40;;;;;;5035673;28;20475;-85
2022/03/24 08:31:09;;;;;;;64.63;43.40;;;10.10;66.50;;;;;;5039957;28;20844;-85
2022/03/24 08:33:36;;;;;;;60.40;39.93;;;10.60;62.40;;;;;;5038171;28;20444;-84
2022/03/24 08:36:03;;;;;;;58.00;40.60;;;11.00;56.50;;;;;;5038973;28;20458;-85
2022/03/24 08:38:31;;;;;;;61.77;40.90;;;11.50;51.50;;;;;;5023528;28;20476;-85
2022/03/24 08:40:57;;;;;;;61.50;44.23;;;12.00;47.20;;;;;;5024272;28;20464;-85
2022/03/24 08:43:24;;;;;;;57.63;41.73;;;12.30;44.00;;;;;;5032628;28;20452;-85
2022/03/24 08:45:51;;;;;;;58.40;40.40;;;12.60;40.80;;;;;;5038952;28;20476;-85
2022/03/24 08:48:18;;;;;;;58.27;43.00;;;13.10;39.80;;;;;;5039528;28;20687;-86
2022/03/24 08:50:45;;;;;;;57.13;43.10;;;13.30;37.30;;;;;;5039438;28;20956;-86
2022/03/24 08:53:12;;;;;;;58.55;46.63;;;13.80;39.40;;;;;;5039470;28;20457;-87
2022/03/24 08:55:40;;;;;;;65.27;49.47;;;14.10;29.90;;;;;;5025496;28;20279;-86
2022/03/24 08:58:08;;;;;;;59.30;44.57;;;14.50;30.00;;;;;;5024003;28;20509;-84
2022/03/24 09:00:35;;;;;;;60.63;42.83;;;14.70;28.90;;;;;;5034394;28;20555;-87
2022/03/24 09:03:02;;;;;;;63.03;43.10;;;15.00;25.60;;;;;;5027644;28;20454;-86
2022/03/24 09:05:29;;;;;;;55.90;43.17;;;15.30;24.70;;;;;;5027253;28;20452;-87
2022/03/24 09:07:56;;;;;;;55.90;42.53;;;15.20;23.40;;;;;;5031284;28;20464;-87
2022/03/24 09:10:22;;;;;;;60.43;44.60;;;15.70;23.00;;;;;;5021886;28;20461;-86
2022/03/24 09:12:50;;;;;;;59.17;43.60;;;15.70;22.70;;;;;;5026085;28;20462;-85
2022/03/24 09:15:19;;;;;;;59.63;44.97;;;16.10;20.50;;;;;;5038491;28;20461;-86
2022/03/24 09:17:46;;;;;;;58.33;44.27;;;16.30;18.60;;;;;;5031994;28;20475;-86
2022/03/24 09:20:16;;;;;;;75.57;45.47;;;16.30;16.80;;;;;;5035088;28;20456;-86
2022/03/24 09:22:45;;;;;;;55.10;41.37;;;16.50;17.20;;;;;;5047380;28;20452;-86
2022/03/24 09:25:14;;;;;;;56.43;44.07;;;16.80;11.10;;;;;;5044654;28;20859;-86
2022/03/24 09:27:41;;;;;;;57.73;40.17;;;17.30;10.60;;;;;;5044737;28;20456;-87
2022/03/24 09:30:14;;;;;;;60.50;42.73;;;17.90;10.60;;;;;;5043339;28;20454;-86
2022/03/24 09:32:40;;;;;;;57.97;47.27;;;18.20;10.90;;;;;;5044047;28;20544;-86
2022/03/24 09:35:08;;;;;;;55.63;44.17;;;18.10;11.80;;;;;;5044494;28;20452;-86
2022/03/24 09:37:35;;;;;;;57.90;45.67;;;17.80;9.30;;;;;;5043703;28;20477;-87
2022/03/24 09:40:04;;;;;;;58.60;45.97;;;17.80;9.80;;;;;;5042683;28;20459;-86
2022/03/24 09:42:31;;;;;;;54.00;42.07;;;17.60;5.90;;;;;;5043088;28;20459;-86
2022/03/24 09:45:00;;;;;;;64.23;43.70;;;17.40;4.90;;;;;;5044357;28;20463;-86
2022/03/24 09:47:29;;;;;;;59.03;43.77;;;17.40;5.30;;;;;;5044388;28;21011;-86
2022/03/24 09:49:56;;;;;;;58.20;45.63;;;17.10;5.00;;;;;;5042668;28;20451;-86
2022/03/24 09:52:24;;;;;;;59.30;43.83;;;17.30;4.10;;;;;;5042922;28;20468;-86
2022/03/24 09:54:51;;;;;;;56.10;45.73;;;17.90;3.00;;;;;;5041054;28;20498;-87
2022/03/24 09:57:18;;;;;;;66.60;48.30;;;18.70;1.70;;;;;;5040183;28;20458;-86
2022/03/24 09:59:45;;;;;;;59.87;47.27;;;19.70;1.00;;;;;;5038907;28;20895;-86
2022/03/24 10:02:13;;;;;;;59.00;46.17;;;19.20;1.00;;;;;;5040367;28;20935;-86
2022/03/24 10:04:48;;;;;;;59.10;46.07;;;18.90;1.00;;;;;;5040156;28;20461;-86
2022/03/24 10:07:16;;;;;;;54.87;45.77;;;19.00;1.00;;;;;;5039683;28;20478;-86
2022/03/24 10:09:44;;;;;;;54.00;44.43;;;19.50;1.00;;;;;;5046979;23;20490;-83
2022/03/24 10:12:21;;;;;;;53.50;42.70;;;19.30;1.00;;;;;;5034306;28;20446;-82
2022/03/24 10:14:59;;;;;;;62.67;46.30;;;19.00;1.00;;;;;;5024561;28;20538;-82
2022/03/24 10:17:47;;;;;;;57.27;40.53;;;19.00;1.00;;;;;;5020257;28;20502;-83
2022/03/24 10:20:16;;;;;;;64.73;42.33;;;19.30;1.00;;;;;;5017082;28;20476;-83
2022/03/24 10:22:53;;;;;;;58.40;45.83;;;19.00;1.00;;;;;;5021821;28;20475;-82
2022/03/24 10:25:22;;;;;;;57.77;46.13;;;19.50;1.00;;;;;;5002366;28;20456;-84
2022/03/24 10:27:51;;;;;;;52.87;43.80;;;19.80;1.00;;;;;;5018539;28;20482;-82
2022/03/24 10:30:18;;;;;;;57.77;44.83;;;19.60;1.00;;;;;;5017373;28;20456;-83
2022/03/24 10:32:56;;;;;;;51.30;43.37;;;19.70;1.00;;;;;;5016869;28;20460;-83
2022/03/24 10:44:27;;;;;;;44.53;39.43;;;20.80;1.00;;;;;;5032589;28;20452;-84
2022/03/24 10:46:53;;;;;;;46.50;41.00;;;20.80;1.00;;;;;;5033422;28;20455;-84
2022/03/24 10:49:23;;;;;;;48.97;43.57;;;20.90;1.00;;;;;;5033357;28;20464;-85
2022/03/24 10:51:50;;;;;;;48.97;40.93;;;21.00;1.00;;;;;;5035369;28;20502;-84
2022/03/24 10:54:41;;;;;;;50.60;41.40;;;20.80;1.00;;;;;;5060213;23;20448;-84
2022/03/24 10:57:13;;;;;;;48.90;42.47;;;21.60;1.00;;;;;;5017410;28;20477;-84
2022/03/24 10:59:42;;;;;;;46.57;40.07;;;22.30;1.00;;;;;;5006254;28;20453;-87
2022/03/24 11:02:10;;;;;;;45.23;39.60;;;22.00;1.00;;;;;;5016519;28;20449;-87
2022/03/24 11:04:37;;;;;;;48.17;42.77;;;21.80;1.00;;;;;;5013518;28;20469;-86
2022/03/24 11:07:04;;;;;;;49.43;43.03;;;21.40;1.00;;;;;;5006839;28;20455;-87
2022/03/24 11:09:34;;;;;;;43.60;38.90;;;21.50;1.00;;;;;;5013424;28;20456;-87
2022/03/24 11:12:28;;;;;;;45.97;39.03;;;21.40;1.00;;;;;;5013896;28;20451;-87
2022/03/24 11:14:56;;;;;;;41.70;37.23;;;21.70;1.00;;;;;;5000824;28;21032;-86
2022/03/24 11:17:25;;;;;;;44.00;39.30;;;22.30;1.00;;;;;;5004114;28;20456;-86
2022/03/24 11:20:05;;;;;;;37.63;31.40;;;21.70;1.00;;;;;;5004528;28;20480;-86
2022/03/24 11:22:38;;;;;;;39.37;33.33;;;21.70;1.00;;;;;;5000142;28;20893;-82
2022/03/24 11:25:06;;;;;;;35.73;31.87;;;21.70;1.00;;;;;;4994186;28;20480;-84
2022/03/24 11:27:34;;;;;;;43.93;35.53;;;21.20;1.00;;;;;;5014031;28;21008;-83
2022/03/24 11:30:02;;;;;;;46.47;36.63;;;21.20;1.00;;;;;;5010641;28;20458;-84
2022/03/24 11:32:29;;;;;;;37.10;31.33;;;21.70;1.00;;;;;;5001402;28;20450;-83
2022/03/24 11:34:56;;;;;;;36.87;32.80;;;21.80;1.00;;;;;;5003098;28;20473;-84
2022/03/24 11:40:45;;;;;;;38.30;29.30;;;23.40;1.00;;;;;;5000307;28;20478;-85
2022/03/24 11:43:18;;;;;;;42.57;33.60;;;23.20;1.00;;;;;;4997900;28;20473;-84
2022/03/24 11:45:53;;;;;;;27.33;18.60;;;23.40;1.00;;;;;;5011218;28;20473;-85
2022/03/24 11:48:32;;;;;;;29.37;25.67;;;22.10;1.00;;;;;;5012820;28;20476;-84
2022/03/24 11:51:04;;;;;;;31.53;26.03;;;22.30;1.00;;;;;;5001774;28;20824;-84
2022/03/24 11:53:38;;;;;;;32.17;28.67;;;21.60;1.00;;;;;;4997697;28;20508;-83
2022/03/24 11:56:16;;;;;;;64.00;29.23;;;22.00;1.00;;;;;;5000713;28;20481;-84
2022/03/24 11:59:20;;;;;;;37.70;29.27;;;22.60;1.00;;;;;;4988579;28;20454;-84
2022/03/24 12:02:14;;;;;;;37.17;29.47;;;22.40;1.00;;;;;;5008827;28;20492;-84
2022/03/24 12:04:48;;;;;;;34.53;26.50;;;22.40;1.00;;;;;;5003532;28;20477;-84
2022/03/24 12:07:17;;;;;;;31.23;26.10;;;21.70;1.00;;;;;;4998189;28;20520;-84
2022/03/24 12:09:56;;;;;;;34.67;25.93;;;21.90;1.00;;;;;;5002085;28;20456;-84
2022/03/24 12:12:23;;;;;;;31.00;26.47;;;21.90;1.00;;;;;;5013769;28;20467;-84
2022/03/24 12:14:53;;;;;;;40.80;29.50;;;22.00;1.00;;;;;;5002584;28;20545;-82
2022/03/24 12:17:25;;;;;;;31.23;27.90;;;22.20;1.00;;;;;;5001011;28;20950;-82
2022/03/24 12:19:54;;;;;;;41.20;30.30;;;23.30;1.00;;;;;;5011951;28;20507;-83
2022/03/24 12:22:37;;;;;;;33.07;27.10;;;23.00;1.00;;;;;;5010108;28;20456;-83
2022/03/24 12:25:26;;;;;;;33.10;28.20;;;23.80;1.00;;;;;;5004522;28;20853;-82
2022/03/24 12:28:11;;;;;;;31.87;24.63;;;24.60;1.00;;;;;;4990270;28;20529;-84
2022/03/24 12:31:08;;;;;;;29.10;23.80;;;24.50;1.00;;;;;;5010680;28;20481;-84
2022/03/24 12:33:43;;;;;;;32.33;26.77;;;24.50;1.00;;;;;;5004613;28;20449;-81
2022/03/24 12:36:13;;;;;;;33.50;28.67;;;24.60;1.00;;;;;;4999438;28;20469;-81
2022/03/24 12:38:44;;;;;;;37.23;31.07;;;23.60;1.00;;;;;;5010770;28;20455;-83
2022/03/24 12:41:20;;;;;;;32.43;27.37;;;22.90;1.00;;;;;;5001699;28;20521;-84
2022/03/24 12:43:49;;;;;;;29.17;25.60;;;23.20;1.00;;;;;;5003238;28;20475;-84
2022/03/24 12:46:22;;;;;;;30.63;22.23;;;23.70;1.00;;;;;;5010774;28;20499;-83
2022/03/24 12:48:51;;;;;;;29.50;20.93;;;23.30;1.00;;;;;;5015710;28;20518;-84